sensor_id;sensor_type;location;lat;lon;timestamp;pressure;altitude;pressure_sealevel;temperature;humidity
61361;BME280;47232;47.506;18.936;2022-12-29T00:01:13;98878.48;;;2.72;65.27
61361;BME280;47232;47.506;18.936;2022-12-29T00:03:39;98885.48;;;2.72;65.35
61361;BME280;47232;47.506;18.936;2022-12-29T00:06:04;98886.52;;;2.69;65.24
61361;BME280;47232;47.506;18.936;2022-12-29T00:08:29;98891.70;;;2.67;65.33
61361;BME280;47232;47.506;18.936;2022-12-29T00:11:09;98894.52;;;2.63;65.34
61361;BME280;47232;47.506;18.936;2022-12-29T00:13:34;98881.44;;;2.59;65.38
61361;BME280;47232;47.506;18.936;2022-12-29T00:16:19;98869.14;;;2.54;65.49
61361;BME280;47232;47.506;18.936;2022-12-29T00:18:44;98871.54;;;2.52;65.68
61361;BME280;47232;47.506;18.936;2022-12-29T00:21:13;98871.77;;;2.48;65.91
61361;BME280;47232;47.506;18.936;2022-12-29T00:23:57;98867.36;;;2.45;65.92
61361;BME280;47232;47.506;18.936;2022-12-29T00:26:41;98876.83;;;2.46;66.13
61361;BME280;47232;47.506;18.936;2022-12-29T00:29:25;98875.02;;;2.47;66.24
61361;BME280;47232;47.506;18.936;2022-12-29T00:32:09;98872.65;;;2.48;66.39
61361;BME280;47232;47.506;18.936;2022-12-29T00:34:54;98879.98;;;2.51;66.34
61361;BME280;47232;47.506;18.936;2022-12-29T00:37:46;98875.43;;;2.52;66.31
61361;BME280;47232;47.506;18.936;2022-12-29T00:40:31;98867.83;;;2.53;66.31
61361;BME280;47232;47.506;18.936;2022-12-29T00:43:16;98863.84;;;2.52;66.28
61361;BME280;47232;47.506;18.936;2022-12-29T00:46:00;98871.05;;;2.50;66.34
61361;BME280;47232;47.506;18.936;2022-12-29T00:48:25;98869.38;;;2.49;66.24
61361;BME280;47232;47.506;18.936;2022-12-29T00:51:09;98866.17;;;2.49;66.02
61361;BME280;47232;47.506;18.936;2022-12-29T00:53:35;98864.17;;;2.45;65.88
61361;BME280;47232;47.506;18.936;2022-12-29T00:56:00;98865.52;;;2.42;65.86
61361;BME280;47232;47.506;18.936;2022-12-29T00:58:30;98867.11;;;2.39;65.78
61361;BME280;47232;47.506;18.936;2022-12-29T01:01:07;98865.41;;;2.35;65.88
61361;BME280;47232;47.506;18.936;2022-12-29T01:03:34;98864.66;;;2.31;65.98
61361;BME280;47232;47.506;18.936;2022-12-29T01:06:04;98858.94;;;2.26;65.91
61361;BME280;47232;47.506;18.936;2022-12-29T01:08:30;98856.96;;;2.22;65.93
61361;BME280;47232;47.506;18.936;2022-12-29T01:11:00;98859.57;;;2.18;66.10
61361;BME280;47232;47.506;18.936;2022-12-29T01:13:26;98857.92;;;2.14;66.54
61361;BME280;47232;47.506;18.936;2022-12-29T01:15:52;98859.56;;;2.11;66.50
61361;BME280;47232;47.506;18.936;2022-12-29T01:18:18;98867.26;;;2.10;66.80
61361;BME280;47232;47.506;18.936;2022-12-29T01:20:43;98869.92;;;2.11;66.78
61361;BME280;47232;47.506;18.936;2022-12-29T01:23:08;98864.70;;;2.13;66.97
61361;BME280;47232;47.506;18.936;2022-12-29T01:25:34;98866.05;;;2.18;67.07
61361;BME280;47232;47.506;18.936;2022-12-29T01:27:59;98864.46;;;2.23;67.07
61361;BME280;47232;47.506;18.936;2022-12-29T01:30:25;98860.19;;;2.24;67.15
61361;BME280;47232;47.506;18.936;2022-12-29T01:32:50;98866.52;;;2.24;67.18
61361;BME280;47232;47.506;18.936;2022-12-29T01:35:16;98867.85;;;2.25;67.24
61361;BME280;47232;47.506;18.936;2022-12-29T01:37:41;98872.39;;;2.26;67.17
61361;BME280;47232;47.506;18.936;2022-12-29T01:40:07;98869.03;;;2.28;66.91
61361;BME280;47232;47.506;18.936;2022-12-29T01:42:33;98860.49;;;2.26;66.67
61361;BME280;47232;47.506;18.936;2022-12-29T01:45:02;98859.48;;;2.24;66.62
61361;BME280;47232;47.506;18.936;2022-12-29T01:47:59;98858.75;;;2.20;66.51
61361;BME280;47232;47.506;18.936;2022-12-29T01:50:40;98860.42;;;2.15;66.48
61361;BME280;47232;47.506;18.936;2022-12-29T01:53:16;98848.50;;;2.10;66.58
61361;BME280;47232;47.506;18.936;2022-12-29T01:55:48;98842.25;;;2.05;66.52
61361;BME280;47232;47.506;18.936;2022-12-29T01:58:17;98844.95;;;2.00;66.43
61361;BME280;47232;47.506;18.936;2022-12-29T02:00:45;98844.38;;;1.95;66.50
61361;BME280;47232;47.506;18.936;2022-12-29T02:03:11;98842.76;;;1.89;66.67
61361;BME280;47232;47.506;18.936;2022-12-29T02:05:47;98845.77;;;1.85;66.66
61361;BME280;47232;47.506;18.936;2022-12-29T02:08:15;98836.37;;;1.79;66.65
61361;BME280;47232;47.506;18.936;2022-12-29T02:10:42;98833.36;;;1.74;66.58
61361;BME280;47232;47.506;18.936;2022-12-29T02:13:08;98831.64;;;1.69;66.82
61361;BME280;47232;47.506;18.936;2022-12-29T02:35:36;98809.29;;;2.00;67.40
61361;BME280;47232;47.506;18.936;2022-12-29T02:45:44;98797.09;;;1.86;67.41
61361;BME280;47232;47.506;18.936;2022-12-29T02:48:18;98799.63;;;1.82;67.36
61361;BME280;47232;47.506;18.936;2022-12-29T02:53:24;98795.93;;;1.74;67.36
61361;BME280;47232;47.506;18.936;2022-12-29T02:56:08;98790.92;;;1.69;67.50
61361;BME280;47232;47.506;18.936;2022-12-29T02:58:34;98792.77;;;1.65;67.54
61361;BME280;47232;47.506;18.936;2022-12-29T03:06:59;98784.44;;;1.49;67.78
61361;BME280;47232;47.506;18.936;2022-12-29T03:09:59;98789.62;;;1.44;68.00
61361;BME280;47232;47.506;18.936;2022-12-29T03:15:34;98788.09;;;1.45;68.41
61361;BME280;47232;47.506;18.936;2022-12-29T03:18:46;98779.73;;;1.47;68.40
61361;BME280;47232;47.506;18.936;2022-12-29T03:24:22;98779.77;;;1.53;68.49
61361;BME280;47232;47.506;18.936;2022-12-29T03:26:53;98770.45;;;1.54;68.50
61361;BME280;47232;47.506;18.936;2022-12-29T03:29:20;98764.68;;;1.55;68.49
61361;BME280;47232;47.506;18.936;2022-12-29T03:31:48;98763.63;;;1.56;68.43
61361;BME280;47232;47.506;18.936;2022-12-29T03:34:16;98763.12;;;1.57;68.46
61361;BME280;47232;47.506;18.936;2022-12-29T03:37:00;98759.61;;;1.56;68.25
61361;BME280;47232;47.506;18.936;2022-12-29T03:39:29;98757.10;;;1.56;68.24
61361;BME280;47232;47.506;18.936;2022-12-29T03:42:01;98750.31;;;1.53;68.39
61361;BME280;47232;47.506;18.936;2022-12-29T03:44:36;98751.11;;;1.50;68.42
61361;BME280;47232;47.506;18.936;2022-12-29T03:47:02;98751.17;;;1.46;68.52
61361;BME280;47232;47.506;18.936;2022-12-29T03:49:28;98758.42;;;1.42;68.52
61361;BME280;47232;47.506;18.936;2022-12-29T03:51:53;98764.20;;;1.38;68.33
61361;BME280;47232;47.506;18.936;2022-12-29T03:54:19;98764.76;;;1.34;68.46
61361;BME280;47232;47.506;18.936;2022-12-29T03:56:44;98758.46;;;1.29;68.66
61361;BME280;47232;47.506;18.936;2022-12-29T03:59:10;98756.65;;;1.25;68.69
61361;BME280;47232;47.506;18.936;2022-12-29T04:01:35;98754.67;;;1.21;68.73
61361;BME280;47232;47.506;18.936;2022-12-29T04:04:01;98756.10;;;1.18;68.75
61361;BME280;47232;47.506;18.936;2022-12-29T04:06:26;98757.40;;;1.16;68.80
61361;BME280;47232;47.506;18.936;2022-12-29T04:08:51;98758.27;;;1.17;68.85
61361;BME280;47232;47.506;18.936;2022-12-29T04:11:17;98756.57;;;1.20;69.07
61361;BME280;47232;47.506;18.936;2022-12-29T04:13:42;98757.05;;;1.23;69.02
61361;BME280;47232;47.506;18.936;2022-12-29T04:16:08;98749.97;;;1.26;69.12
61361;BME280;47232;47.506;18.936;2022-12-29T04:18:33;98753.67;;;1.28;69.30
61361;BME280;47232;47.506;18.936;2022-12-29T04:20:59;98756.22;;;1.31;69.18
61361;BME280;47232;47.506;18.936;2022-12-29T04:23:30;98755.54;;;1.34;69.21
61361;BME280;47232;47.506;18.936;2022-12-29T04:25:57;98751.16;;;1.36;69.08
61361;BME280;47232;47.506;18.936;2022-12-29T04:28:23;98756.31;;;1.37;69.06
61361;BME280;47232;47.506;18.936;2022-12-29T04:30:48;98761.39;;;1.36;69.43
61361;BME280;47232;47.506;18.936;2022-12-29T04:33:14;98759.20;;;1.34;69.32
61361;BME280;47232;47.506;18.936;2022-12-29T04:35:39;98765.73;;;1.31;69.42
61361;BME280;47232;47.506;18.936;2022-12-29T04:38:05;98763.44;;;1.29;69.32
61361;BME280;47232;47.506;18.936;2022-12-29T04:40:30;98762.60;;;1.26;69.20
61361;BME280;47232;47.506;18.936;2022-12-29T04:42:56;98758.80;;;1.24;69.33
61361;BME280;47232;47.506;18.936;2022-12-29T04:45:23;98751.98;;;1.21;69.36
61361;BME280;47232;47.506;18.936;2022-12-29T04:47:48;98751.52;;;1.19;69.20
61361;BME280;47232;47.506;18.936;2022-12-29T04:50:14;98753.85;;;1.16;69.45
61361;BME280;47232;47.506;18.936;2022-12-29T04:52:39;98758.09;;;1.14;69.40
61361;BME280;47232;47.506;18.936;2022-12-29T04:55:05;98765.77;;;1.12;69.54
61361;BME280;47232;47.506;18.936;2022-12-29T04:57:31;98759.83;;;1.13;69.63
61361;BME280;47232;47.506;18.936;2022-12-29T04:59:56;98753.19;;;1.15;69.69
61361;BME280;47232;47.506;18.936;2022-12-29T05:02:22;98752.41;;;1.19;69.70
61361;BME280;47232;47.506;18.936;2022-12-29T05:04:48;98752.22;;;1.23;69.81
61361;BME280;47232;47.506;18.936;2022-12-29T05:07:13;98755.20;;;1.27;69.83
61361;BME280;47232;47.506;18.936;2022-12-29T05:09:39;98756.77;;;1.32;69.85
61361;BME280;47232;47.506;18.936;2022-12-29T05:12:05;98757.38;;;1.37;69.76
61361;BME280;47232;47.506;18.936;2022-12-29T05:14:30;98758.48;;;1.39;69.78
61361;BME280;47232;47.506;18.936;2022-12-29T05:16:55;98751.33;;;1.40;69.59
61361;BME280;47232;47.506;18.936;2022-12-29T05:19:21;98749.21;;;1.40;69.48
61361;BME280;47232;47.506;18.936;2022-12-29T05:21:46;98745.49;;;1.39;69.62
61361;BME280;47232;47.506;18.936;2022-12-29T05:24:12;98741.70;;;1.38;69.42
61361;BME280;47232;47.506;18.936;2022-12-29T05:26:37;98744.98;;;1.35;69.57
61361;BME280;47232;47.506;18.936;2022-12-29T05:29:03;98745.83;;;1.32;69.48
61361;BME280;47232;47.506;18.936;2022-12-29T05:31:28;98751.23;;;1.28;69.36
61361;BME280;47232;47.506;18.936;2022-12-29T05:33:54;98744.80;;;1.23;69.31
61361;BME280;47232;47.506;18.936;2022-12-29T05:36:19;98750.19;;;1.19;69.53
61361;BME280;47232;47.506;18.936;2022-12-29T05:38:45;98751.48;;;1.16;69.49
61361;BME280;47232;47.506;18.936;2022-12-29T05:41:10;98750.63;;;1.11;69.46
61361;BME280;47232;47.506;18.936;2022-12-29T05:43:36;98751.02;;;1.06;69.43
61361;BME280;47232;47.506;18.936;2022-12-29T05:46:01;98746.27;;;1.02;69.53
61361;BME280;47232;47.506;18.936;2022-12-29T05:48:27;98739.83;;;1.00;69.68
61361;BME280;47232;47.506;18.936;2022-12-29T05:50:53;98737.55;;;1.01;69.74
61361;BME280;47232;47.506;18.936;2022-12-29T05:53:18;98733.58;;;1.04;69.88
61361;BME280;47232;47.506;18.936;2022-12-29T05:55:46;98724.30;;;1.08;69.94
61361;BME280;47232;47.506;18.936;2022-12-29T05:58:12;98719.92;;;1.11;69.96
61361;BME280;47232;47.506;18.936;2022-12-29T06:00:37;98720.74;;;1.13;69.80
61361;BME280;47232;47.506;18.936;2022-12-29T06:03:03;98724.14;;;1.16;69.99
61361;BME280;47232;47.506;18.936;2022-12-29T06:05:29;98725.10;;;1.19;69.87
61361;BME280;47232;47.506;18.936;2022-12-29T06:07:54;98733.64;;;1.20;69.92
61361;BME280;47232;47.506;18.936;2022-12-29T06:10:20;98733.05;;;1.19;69.74
61361;BME280;47232;47.506;18.936;2022-12-29T06:12:45;98732.16;;;1.17;69.67
61361;BME280;47232;47.506;18.936;2022-12-29T06:15:12;98729.06;;;1.15;69.80
61361;BME280;47232;47.506;18.936;2022-12-29T06:17:37;98728.64;;;1.12;69.92
61361;BME280;47232;47.506;18.936;2022-12-29T06:20:03;98727.01;;;1.10;69.79
61361;BME280;47232;47.506;18.936;2022-12-29T06:22:29;98728.90;;;1.06;69.70
61361;BME280;47232;47.506;18.936;2022-12-29T06:24:54;98729.63;;;1.03;69.87
61361;BME280;47232;47.506;18.936;2022-12-29T06:27:19;98731.27;;;0.99;69.97
61361;BME280;47232;47.506;18.936;2022-12-29T06:29:45;98731.05;;;0.96;69.77
61361;BME280;47232;47.506;18.936;2022-12-29T06:32:11;98737.70;;;0.92;69.93
61361;BME280;47232;47.506;18.936;2022-12-29T06:34:37;98734.77;;;0.88;69.89
61361;BME280;47232;47.506;18.936;2022-12-29T06:37:03;98739.80;;;0.84;69.80
61361;BME280;47232;47.506;18.936;2022-12-29T06:39:28;98734.96;;;0.83;69.90
61361;BME280;47232;47.506;18.936;2022-12-29T06:41:54;98733.66;;;0.85;70.20
61361;BME280;47232;47.506;18.936;2022-12-29T06:44:22;98739.66;;;0.88;70.35
61361;BME280;47232;47.506;18.936;2022-12-29T06:46:49;98737.70;;;0.92;70.34
61361;BME280;47232;47.506;18.936;2022-12-29T06:49:14;98741.49;;;0.96;70.51
61361;BME280;47232;47.506;18.936;2022-12-29T06:51:40;98741.58;;;1.00;70.43
61361;BME280;47232;47.506;18.936;2022-12-29T06:54:08;98746.52;;;1.03;70.39
61361;BME280;47232;47.506;18.936;2022-12-29T06:56:33;98751.70;;;1.06;70.12
61361;BME280;47232;47.506;18.936;2022-12-29T06:58:59;98759.17;;;1.08;70.27
61361;BME280;47232;47.506;18.936;2022-12-29T07:01:26;98764.88;;;1.11;70.17
61361;BME280;47232;47.506;18.936;2022-12-29T07:03:51;98768.36;;;1.13;70.30
61361;BME280;47232;47.506;18.936;2022-12-29T07:06:17;98766.34;;;1.15;70.23
61361;BME280;47232;47.506;18.936;2022-12-29T07:08:42;98770.55;;;1.16;70.23
61361;BME280;47232;47.506;18.936;2022-12-29T07:11:08;98770.92;;;1.17;70.37
61361;BME280;47232;47.506;18.936;2022-12-29T07:13:34;98771.33;;;1.18;70.33
61361;BME280;47232;47.506;18.936;2022-12-29T07:16:07;98771.77;;;1.18;70.41
61361;BME280;47232;47.506;18.936;2022-12-29T07:18:33;98764.40;;;1.19;70.34
61361;BME280;47232;47.506;18.936;2022-12-29T07:20:59;98767.86;;;1.21;70.40
61361;BME280;47232;47.506;18.936;2022-12-29T07:23:24;98766.50;;;1.21;70.28
61361;BME280;47232;47.506;18.936;2022-12-29T07:25:50;98764.02;;;1.21;70.32
61361;BME280;47232;47.506;18.936;2022-12-29T07:28:15;98771.43;;;1.24;70.38
61361;BME280;47232;47.506;18.936;2022-12-29T07:30:41;98767.95;;;1.32;70.50
61361;BME280;47232;47.506;18.936;2022-12-29T07:33:06;98766.13;;;1.40;70.51
61361;BME280;47232;47.506;18.936;2022-12-29T07:35:33;98764.01;;;1.49;70.58
61361;BME280;47232;47.506;18.936;2022-12-29T07:37:59;98762.19;;;1.58;70.77
61361;BME280;47232;47.506;18.936;2022-12-29T07:40:24;98763.81;;;1.67;70.69
61361;BME280;47232;47.506;18.936;2022-12-29T07:42:49;98767.77;;;1.76;70.68
61361;BME280;47232;47.506;18.936;2022-12-29T07:45:15;98762.91;;;1.84;70.68
61361;BME280;47232;47.506;18.936;2022-12-29T07:47:40;98767.36;;;1.90;70.52
61361;BME280;47232;47.506;18.936;2022-12-29T07:50:06;98769.70;;;1.97;70.40
61361;BME280;47232;47.506;18.936;2022-12-29T07:52:31;98773.27;;;2.01;70.13
61361;BME280;47232;47.506;18.936;2022-12-29T07:54:57;98774.95;;;2.05;69.97
61361;BME280;47232;47.506;18.936;2022-12-29T07:57:22;98774.09;;;2.08;69.84
61361;BME280;47232;47.506;18.936;2022-12-29T07:59:48;98773.77;;;2.11;69.90
61361;BME280;47232;47.506;18.936;2022-12-29T08:02:13;98778.48;;;2.15;69.87
61361;BME280;47232;47.506;18.936;2022-12-29T08:04:39;98775.57;;;2.18;70.01
61361;BME280;47232;47.506;18.936;2022-12-29T08:07:04;98775.83;;;2.20;70.02
61361;BME280;47232;47.506;18.936;2022-12-29T08:09:30;98771.27;;;2.23;70.15
61361;BME280;47232;47.506;18.936;2022-12-29T08:11:55;98773.64;;;2.25;70.21
61361;BME280;47232;47.506;18.936;2022-12-29T08:14:21;98773.63;;;2.25;70.15
61361;BME280;47232;47.506;18.936;2022-12-29T08:16:49;98773.17;;;2.23;69.99
61361;BME280;47232;47.506;18.936;2022-12-29T08:19:15;98766.45;;;2.24;70.06
61361;BME280;47232;47.506;18.936;2022-12-29T08:21:41;98770.19;;;2.28;69.96
61361;BME280;47232;47.506;18.936;2022-12-29T08:24:06;98768.88;;;2.34;69.92
61361;BME280;47232;47.506;18.936;2022-12-29T08:26:33;98762.88;;;2.43;69.96
61361;BME280;47232;47.506;18.936;2022-12-29T08:28:58;98765.62;;;2.53;69.93
61361;BME280;47232;47.506;18.936;2022-12-29T08:31:24;98760.27;;;2.64;70.05
61361;BME280;47232;47.506;18.936;2022-12-29T08:33:50;98762.05;;;2.75;69.93
61361;BME280;47232;47.506;18.936;2022-12-29T08:36:15;98753.92;;;2.86;69.74
61361;BME280;47232;47.506;18.936;2022-12-29T08:38:41;98746.33;;;2.96;69.69
61361;BME280;47232;47.506;18.936;2022-12-29T08:41:07;98743.27;;;3.04;69.61
61361;BME280;47232;47.506;18.936;2022-12-29T08:43:33;98746.74;;;3.06;69.55
61361;BME280;47232;47.506;18.936;2022-12-29T08:45:59;98746.48;;;3.06;69.54
61361;BME280;47232;47.506;18.936;2022-12-29T08:48:25;98749.13;;;3.05;69.50
61361;BME280;47232;47.506;18.936;2022-12-29T08:50:51;98752.36;;;3.04;69.46
61361;BME280;47232;47.506;18.936;2022-12-29T08:53:18;98752.10;;;3.04;69.23
61361;BME280;47232;47.506;18.936;2022-12-29T08:55:47;98751.75;;;3.02;69.31
61361;BME280;47232;47.506;18.936;2022-12-29T08:58:19;98745.33;;;3.03;69.33
61361;BME280;47232;47.506;18.936;2022-12-29T09:00:45;98746.25;;;3.05;69.22
61361;BME280;47232;47.506;18.936;2022-12-29T09:03:10;98750.82;;;3.03;69.34
61361;BME280;47232;47.506;18.936;2022-12-29T09:05:36;98743.43;;;3.04;69.35
61361;BME280;47232;47.506;18.936;2022-12-29T09:08:01;98743.39;;;3.12;69.43
61361;BME280;47232;47.506;18.936;2022-12-29T09:10:26;98737.27;;;3.15;69.37
61361;BME280;47232;47.506;18.936;2022-12-29T09:12:52;98733.94;;;3.19;69.43
61361;BME280;47232;47.506;18.936;2022-12-29T09:15:18;98728.61;;;3.37;69.28
61361;BME280;47232;47.506;18.936;2022-12-29T09:17:44;98729.23;;;3.60;69.34
61361;BME280;47232;47.506;18.936;2022-12-29T09:20:12;98727.05;;;3.82;69.27
61361;BME280;47232;47.506;18.936;2022-12-29T09:22:38;98724.58;;;4.08;68.91
61361;BME280;47232;47.506;18.936;2022-12-29T09:25:04;98718.83;;;4.28;68.69
61361;BME280;47232;47.506;18.936;2022-12-29T09:27:30;98718.60;;;4.46;68.76
61361;BME280;47232;47.506;18.936;2022-12-29T09:29:56;98712.92;;;4.56;68.33
61361;BME280;47232;47.506;18.936;2022-12-29T09:32:21;98701.81;;;4.67;67.94
61361;BME280;47232;47.506;18.936;2022-12-29T09:34:47;98704.05;;;4.83;67.79
61361;BME280;47232;47.506;18.936;2022-12-29T09:37:12;98698.20;;;5.03;67.30
61361;BME280;47232;47.506;18.936;2022-12-29T09:39:38;98700.68;;;5.15;67.03
61361;BME280;47232;47.506;18.936;2022-12-29T09:42:20;98699.63;;;5.15;66.92
61361;BME280;47232;47.506;18.936;2022-12-29T09:47:16;98693.33;;;5.42;65.91
61361;BME280;47232;47.506;18.936;2022-12-29T09:49:46;98692.41;;;5.62;65.59
61361;BME280;47232;47.506;18.936;2022-12-29T09:52:18;98691.05;;;5.81;65.26
61361;BME280;47232;47.506;18.936;2022-12-29T09:55:02;98695.36;;;6.00;64.98
61361;BME280;47232;47.506;18.936;2022-12-29T10:00:19;98694.30;;;6.35;64.00
61361;BME280;47232;47.506;18.936;2022-12-29T10:02:52;98695.48;;;6.46;63.76
61361;BME280;47232;47.506;18.936;2022-12-29T10:10:57;98684.77;;;7.00;62.68
61361;BME280;47232;47.506;18.936;2022-12-29T10:25:26;98663.15;;;7.90;60.26
61361;BME280;47232;47.506;18.936;2022-12-29T10:27:57;98670.61;;;8.05;59.84
61361;BME280;47232;47.506;18.936;2022-12-29T10:30:24;98665.42;;;8.22;59.69
61361;BME280;47232;47.506;18.936;2022-12-29T10:32:55;98661.39;;;8.37;59.23
61361;BME280;47232;47.506;18.936;2022-12-29T10:35:29;98663.21;;;8.52;58.84
61361;BME280;47232;47.506;18.936;2022-12-29T10:38:35;98660.83;;;8.71;58.49
61361;BME280;47232;47.506;18.936;2022-12-29T10:43:44;98658.02;;;9.16;57.72
61361;BME280;47232;47.506;18.936;2022-12-29T10:46:18;98657.80;;;9.35;57.33
61361;BME280;47232;47.506;18.936;2022-12-29T10:48:45;98655.67;;;9.54;57.20
61361;BME280;47232;47.506;18.936;2022-12-29T10:51:34;98652.48;;;9.71;56.53
61361;BME280;47232;47.506;18.936;2022-12-29T10:54:26;98650.55;;;9.91;55.92
61361;BME280;47232;47.506;18.936;2022-12-29T10:57:05;98650.95;;;10.09;55.49
61361;BME280;47232;47.506;18.936;2022-12-29T10:59:35;98649.30;;;10.28;55.01
61361;BME280;47232;47.506;18.936;2022-12-29T11:07:30;98651.46;;;10.79;53.25
61361;BME280;47232;47.506;18.936;2022-12-29T11:13:05;98639.92;;;11.07;52.44
61361;BME280;47232;47.506;18.936;2022-12-29T11:15:45;98643.48;;;11.21;52.09
61361;BME280;47232;47.506;18.936;2022-12-29T11:18:32;98646.31;;;11.31;51.31
61361;BME280;47232;47.506;18.936;2022-12-29T11:21:01;98643.73;;;11.40;50.84
61361;BME280;47232;47.506;18.936;2022-12-29T11:23:33;98639.39;;;11.47;50.79
61361;BME280;47232;47.506;18.936;2022-12-29T11:26:07;98635.13;;;11.60;50.36
61361;BME280;47232;47.506;18.936;2022-12-29T11:28:38;98632.82;;;11.74;50.02
61361;BME280;47232;47.506;18.936;2022-12-29T11:31:05;98629.02;;;11.89;49.79
61361;BME280;47232;47.506;18.936;2022-12-29T11:33:33;98628.13;;;11.96;49.16
61361;BME280;47232;47.506;18.936;2022-12-29T11:36:04;98621.09;;;12.00;49.19
61361;BME280;47232;47.506;18.936;2022-12-29T11:38:35;98611.18;;;12.09;48.89
61361;BME280;47232;47.506;18.936;2022-12-29T11:41:02;98609.18;;;12.21;47.96
61361;BME280;47232;47.506;18.936;2022-12-29T11:43:38;98601.89;;;12.28;47.92
61361;BME280;47232;47.506;18.936;2022-12-29T11:46:05;98598.64;;;12.38;47.77
61361;BME280;47232;47.506;18.936;2022-12-29T11:48:39;98606.85;;;12.49;47.52
61361;BME280;47232;47.506;18.936;2022-12-29T11:51:06;98618.55;;;12.55;47.51
61361;BME280;47232;47.506;18.936;2022-12-29T11:53:42;98622.38;;;12.64;47.03
61361;BME280;47232;47.506;18.936;2022-12-29T11:56:13;98620.80;;;12.72;46.88
61361;BME280;47232;47.506;18.936;2022-12-29T11:58:40;98622.36;;;12.86;46.97
61361;BME280;47232;47.506;18.936;2022-12-29T12:04:10;98619.58;;;13.16;46.27
61361;BME280;47232;47.506;18.936;2022-12-29T12:07:09;98621.38;;;13.24;45.25
61361;BME280;47232;47.506;18.936;2022-12-29T12:10:01;98618.77;;;13.29;45.27
61361;BME280;47232;47.506;18.936;2022-12-29T12:12:34;98615.15;;;13.38;45.21
61361;BME280;47232;47.506;18.936;2022-12-29T12:15:01;98615.29;;;13.48;45.08
61361;BME280;47232;47.506;18.936;2022-12-29T12:17:31;98614.77;;;13.61;44.94
61361;BME280;47232;47.506;18.936;2022-12-29T12:20:16;98608.63;;;13.72;44.50
61361;BME280;47232;47.506;18.936;2022-12-29T12:25:23;98583.36;;;13.78;43.50
61361;BME280;47232;47.506;18.936;2022-12-29T12:28:13;98582.48;;;13.78;43.42
61361;BME280;47232;47.506;18.936;2022-12-29T12:30:49;98578.67;;;13.81;43.41
61361;BME280;47232;47.506;18.936;2022-12-29T12:33:28;98580.33;;;13.72;43.51
61361;BME280;47232;47.506;18.936;2022-12-29T12:36:23;98574.12;;;13.73;43.66
61361;BME280;47232;47.506;18.936;2022-12-29T12:38:55;98563.91;;;13.89;43.07
61361;BME280;47232;47.506;18.936;2022-12-29T12:50:15;98573.23;;;14.12;42.22
61361;BME280;47232;47.506;18.936;2022-12-29T13:14:42;98571.38;;;14.71;41.27
61361;BME280;47232;47.506;18.936;2022-12-29T13:20:18;98578.95;;;14.93;40.50
61361;BME280;47232;47.506;18.936;2022-12-29T13:25:59;98580.32;;;15.04;40.14
61361;BME280;47232;47.506;18.936;2022-12-29T13:31:24;98588.65;;;15.29;39.46
61361;BME280;47232;47.506;18.936;2022-12-29T13:36:48;98588.13;;;15.55;39.34
61361;BME280;47232;47.506;18.936;2022-12-29T13:39:21;98591.59;;;15.76;39.52
61361;BME280;47232;47.506;18.936;2022-12-29T13:41:53;98595.27;;;15.89;38.63
61361;BME280;47232;47.506;18.936;2022-12-29T13:44:23;98593.98;;;15.92;38.51
61361;BME280;47232;47.506;18.936;2022-12-29T13:46:51;98592.20;;;16.03;38.56
61361;BME280;47232;47.506;18.936;2022-12-29T13:49:21;98595.80;;;16.21;38.12
61361;BME280;47232;47.506;18.936;2022-12-29T13:51:56;98596.20;;;16.27;37.69
61361;BME280;47232;47.506;18.936;2022-12-29T14:00:06;98597.41;;;16.15;37.57
61361;BME280;47232;47.506;18.936;2022-12-29T14:02:55;98595.72;;;16.26;37.17
61361;BME280;47232;47.506;18.936;2022-12-29T14:05:31;98599.12;;;16.43;37.01
61361;BME280;47232;47.506;18.936;2022-12-29T14:08:03;98599.05;;;16.57;36.62
61361;BME280;47232;47.506;18.936;2022-12-29T14:10:35;98603.96;;;16.60;36.55
61361;BME280;47232;47.506;18.936;2022-12-29T14:13:09;98604.86;;;16.64;36.37
61361;BME280;47232;47.506;18.936;2022-12-29T14:15:38;98600.75;;;16.67;36.22
61361;BME280;47232;47.506;18.936;2022-12-29T14:18:21;98595.75;;;16.66;35.99
61361;BME280;47232;47.506;18.936;2022-12-29T14:28:35;98580.94;;;16.48;35.73
61361;BME280;47232;47.506;18.936;2022-12-29T14:31:24;98592.05;;;16.51;35.66
61361;BME280;47232;47.506;18.936;2022-12-29T14:39:04;98596.71;;;16.10;35.62
61361;BME280;47232;47.506;18.936;2022-12-29T14:41:39;98595.52;;;15.92;35.92
61361;BME280;47232;47.506;18.936;2022-12-29T14:44:25;98602.05;;;15.65;36.00
61361;BME280;47232;47.506;18.936;2022-12-29T14:47:00;98604.13;;;15.29;36.24
61361;BME280;47232;47.506;18.936;2022-12-29T14:49:31;98609.83;;;14.87;36.63
61361;BME280;47232;47.506;18.936;2022-12-29T14:52:20;98613.48;;;14.38;37.48
61361;BME280;47232;47.506;18.936;2022-12-29T14:54:48;98603.89;;;13.80;38.28
61361;BME280;47232;47.506;18.936;2022-12-29T14:57:39;98598.79;;;13.32;39.15
61361;BME280;47232;47.506;18.936;2022-12-29T15:00:24;98593.95;;;12.70;39.79
61361;BME280;47232;47.506;18.936;2022-12-29T15:03:18;98597.27;;;12.12;40.58
61361;BME280;47232;47.506;18.936;2022-12-29T15:06:04;98608.33;;;11.50;41.32
61361;BME280;47232;47.506;18.936;2022-12-29T15:08:38;98621.66;;;10.98;42.25
61361;BME280;47232;47.506;18.936;2022-12-29T15:17:28;98621.30;;;9.57;44.87
61361;BME280;47232;47.506;18.936;2022-12-29T15:19:55;98616.88;;;9.21;45.44
61361;BME280;47232;47.506;18.936;2022-12-29T15:22:22;98617.96;;;8.90;46.12
61361;BME280;47232;47.506;18.936;2022-12-29T15:24:50;98613.28;;;8.61;46.49
61361;BME280;47232;47.506;18.936;2022-12-29T15:27:20;98620.87;;;8.34;47.07
61361;BME280;47232;47.506;18.936;2022-12-29T15:29:46;98616.98;;;8.09;47.50
61361;BME280;47232;47.506;18.936;2022-12-29T15:32:20;98612.72;;;7.84;47.78
61361;BME280;47232;47.506;18.936;2022-12-29T15:34:49;98613.27;;;7.60;48.08
61361;BME280;47232;47.506;18.936;2022-12-29T15:37:35;98616.60;;;7.38;48.38
61361;BME280;47232;47.506;18.936;2022-12-29T15:40:01;98613.55;;;7.13;49.43
61361;BME280;47232;47.506;18.936;2022-12-29T15:42:52;98617.62;;;6.93;49.94